createdAt,value
2019-04-01T00:06:42.942Z,962.4
2019-04-01T00:16:46.345Z,962.5
2019-04-01T00:26:49.781Z,962.8
2019-04-01T00:36:53.203Z,963.1
2019-04-01T00:46:56.656Z,962.9
2019-04-01T00:57:00.092Z,963.2
2019-04-01T01:07:03.554Z,963.3
2019-04-01T01:17:07.061Z,963.3
2019-04-01T01:27:10.517Z,963.5
2019-04-01T01:37:13.945Z,963.4
2019-04-01T01:47:17.387Z,963.5
2019-04-01T01:57:20.799Z,963.7
2019-04-01T02:07:24.228Z,963.7
2019-04-01T02:17:27.635Z,963.8
2019-04-01T02:27:31.055Z,964.3
2019-04-01T02:37:34.551Z,964.1
2019-04-01T02:47:38.029Z,964.5
2019-04-01T02:57:41.502Z,964.6
2019-04-01T03:07:44.939Z,964.9
2019-04-01T03:17:48.413Z,964.9
2019-04-01T03:27:51.868Z,965.1
2019-04-01T03:37:55.333Z,965.3
2019-04-01T03:47:58.796Z,965.5
2019-04-01T03:58:02.267Z,965.4
2019-04-01T04:08:05.708Z,965.6
2019-04-01T04:18:09.189Z,965.9
2019-04-01T04:28:12.656Z,965.8
2019-04-01T04:38:16.112Z,966.1
2019-04-01T04:48:19.590Z,966
2019-04-01T04:58:24.036Z,966.3
2019-04-01T05:08:27.473Z,966.5
2019-04-01T05:18:30.917Z,966.4
2019-04-01T05:28:34.364Z,966.5
2019-04-01T05:38:37.815Z,966.4
2019-04-01T05:48:41.223Z,966.3
2019-04-01T05:58:44.673Z,966.1
2019-04-01T06:08:48.180Z,965.3
2019-04-01T06:18:57.094Z,964
2019-04-01T06:29:00.504Z,967.7
2019-04-01T06:39:03.922Z,966.4
2019-04-01T06:49:07.418Z,963.1
2019-04-01T06:59:10.854Z,963.7
2019-04-01T07:09:14.319Z,962.9
2019-04-01T07:19:17.737Z,963.1
2019-04-01T07:29:21.183Z,962.8
2019-04-01T07:39:24.613Z,962.4
2019-04-01T07:49:28.137Z,961.8
2019-04-01T07:59:31.612Z,961.9
2019-04-01T08:09:35.012Z,960.9
2019-04-01T08:19:38.422Z,960.6
2019-04-01T08:29:41.815Z,967.8
2019-04-01T08:39:45.220Z,960.4
2019-04-01T08:49:48.654Z,960.5
2019-04-01T08:59:55.856Z,967.8
2019-04-01T09:09:59.785Z,967
2019-04-01T09:20:03.184Z,967.4
2019-04-01T09:30:06.600Z,966.3
2019-04-01T09:40:10.052Z,966.7
2019-04-01T09:50:13.524Z,966.5
2019-04-01T10:00:16.958Z,965.7
2019-04-01T10:10:20.387Z,965.2
2019-04-01T10:20:23.808Z,964.7
2019-04-01T10:30:27.240Z,964.6
2019-04-01T10:40:30.689Z,964.5
2019-04-01T10:50:34.480Z,964.1
2019-04-01T11:00:38.171Z,963.7
2019-04-01T11:10:41.621Z,963.5
2019-04-01T11:20:45.084Z,963
2019-04-01T11:30:48.780Z,963.3
2019-04-01T11:40:52.368Z,963.1
2019-04-01T11:50:55.931Z,962.7
2019-04-01T12:00:59.355Z,962.9
2019-04-01T12:11:03.823Z,961.9
2019-04-01T12:21:08.778Z,962.1
2019-04-01T12:31:13.475Z,962.1
2019-04-01T12:41:16.919Z,962.2
2019-04-01T12:51:22.292Z,961.9
2019-04-01T13:01:25.722Z,961.5
2019-04-01T13:11:29.195Z,961.4
2019-04-01T13:21:35.018Z,961.3
2019-04-01T13:31:38.449Z,960.9
2019-04-01T13:41:43.432Z,961.3
2019-04-01T13:51:46.883Z,960.7
2019-04-01T14:01:50.326Z,960.6
2019-04-01T14:11:53.796Z,960.8
2019-04-01T14:21:57.247Z,960.7
2019-04-01T14:32:00.690Z,960.6
2019-04-01T14:42:04.129Z,960.4
2019-04-01T14:52:07.567Z,960
2019-04-01T15:02:11.022Z,960.1
2019-04-01T15:12:14.455Z,960.1
2019-04-01T15:22:17.891Z,960.2
2019-04-01T15:32:21.352Z,959.9
2019-04-01T15:42:25.647Z,959.9
2019-04-01T15:52:29.108Z,959.9
2019-04-01T16:02:32.555Z,959.9
2019-04-01T16:12:35.981Z,960.1
2019-04-01T16:22:39.437Z,960
2019-04-01T16:32:42.860Z,960.2
2019-04-01T16:42:46.282Z,960.1
2019-04-01T16:52:49.721Z,960.3
2019-04-01T17:02:53.182Z,960.3
2019-04-01T17:12:56.630Z,960.6
2019-04-01T17:23:01.636Z,960.6
2019-04-01T17:33:09.084Z,960.8
2019-04-01T17:43:14.001Z,961.3
2019-04-01T17:53:17.455Z,961.5
2019-04-01T18:03:20.907Z,961.9
2019-04-01T18:13:24.338Z,962.1
2019-04-01T18:23:27.782Z,962.4
2019-04-01T18:33:31.237Z,962.6
2019-04-01T18:43:34.678Z,962.8
2019-04-01T18:53:38.110Z,963
2019-04-01T19:03:43.410Z,963.1
2019-04-01T19:13:46.834Z,963.5
2019-04-01T19:23:50.283Z,963.5
2019-04-01T19:33:53.744Z,963.7
2019-04-01T19:43:57.176Z,964.4
2019-04-01T19:54:00.560Z,964.4
2019-04-01T20:04:04.021Z,964.7
2019-04-01T20:14:07.490Z,964.9
2019-04-01T20:24:10.911Z,964.7
2019-04-01T20:34:23.074Z,957.4
2019-04-01T20:44:26.559Z,957.4
2019-04-01T20:54:29.979Z,957.8
2019-04-01T21:04:33.402Z,958
2019-04-01T21:14:36.833Z,958.3
2019-04-01T21:24:40.257Z,958.4
2019-04-01T21:34:43.667Z,958.5
2019-04-01T21:44:47.666Z,958.4
2019-04-01T21:54:51.056Z,958.7
2019-04-01T22:04:54.472Z,958.8
2019-04-01T22:14:57.927Z,958.7
2019-04-01T22:25:01.917Z,958.9
2019-04-01T22:35:08.814Z,959.4
2019-04-01T22:45:13.287Z,959.6
2019-04-01T22:55:16.729Z,959.4
2019-04-01T23:05:20.168Z,959.4
2019-04-01T23:15:23.611Z,959.8
2019-04-01T23:25:27.071Z,959.9
2019-04-01T23:35:30.509Z,960.1
2019-04-01T23:45:33.916Z,960.9
2019-04-01T23:55:37.328Z,960.7
